Latest Coastal Weather Observations for Shark Bay Airport

IDW60701

Issued at 8:33 pm WST Sunday 9 August 2020 (issued every 10 minutes, with the page automatically refreshed every 10 minutes)

About coastal observations | Map of coastal stations | Coastal observations for WA | Marine services | Other Formats
Station Details ID: 006105 Name: SHARK BAY AIRPORT Lat: -25.89 Lon: 113.58 Height: 33.8 m
Data from the previous 72 hours. | See also: Recent months at Shark Bay Airport
Date/Time
WST
Wind Sea
Height
m
Swell Vis
km
Cloud Weather Temp
°C
Press
hPa
Rain since
9am
mm
Dir  Spd
kts
Gust
kts
Height
m
Period
s
Dir
09/08:30pm W 12 16 - - - - - - - 16.7 1007.8 0.4
09/08:00pm W 14 21 - - - - - - - 16.9 1007.6 0.4
09/07:30pm W 17 24 - - - - - - - 16.8 1007.4 0.4
09/07:07pm W 17 27 - - - - - - - 18.2 1007.2 0.4
09/07:00pm W 19 25 - - - - - - - 18.4 1007.0 0.4
09/06:43pm W 18 28 - - - - - - - 18.6 1006.6 0.4
09/06:30pm W 20 27 - - - - - - - 18.6 1006.3 0.4
09/06:00pm W 17 22 - - - - - - - 18.8 1006.0 0.4
09/05:30pm W 20 27 - - - - - - - 19.3 1005.5 0.4
09/05:00pm WNW 20 30 - - - - - - - 19.6 1005.3 0.4
09/04:59pm WNW 20 30 - - - - - - - 19.6 1005.3 0.4
09/04:30pm W 21 29 - - - - - - - 19.8 1005.1 0.4
09/04:24pm W 19 29 - - - - - - - 20.4 1004.8 0.4
09/04:00pm W 18 25 - - - - - - - 19.4 1005.0 0.4
09/03:30pm WNW 21 28 - - - - - - - 21.0 1004.6 0.4
09/03:20pm WNW 19 29 - - - - - - - 21.1 1004.4 0.4
09/03:00pm W 19 27 - - - - - - - 20.3 1004.5 0.4
09/02:30pm W 19 24 - - - - - - - 20.1 1004.3 0.4
09/02:00pm W 18 28 - - - - - - - 20.0 1004.3 0.4
09/01:50pm W 19 29 - - - - - - - 19.9 1004.2 0.4
09/01:30pm WNW 19 25 - - - - - - - 20.8 1004.4 0.4
09/01:00pm WNW 18 25 - - - - - - - 20.3 1004.6 0.4
09/12:30pm W 19 26 - - - - - - - 20.2 1004.5 0.4
09/12:00pm W 21 28 - - - - - - Recent precip. 19.3 1004.6 0.4
09/11:30am WNW 19 29 - - - - - - - 18.8 1004.8 0.4
09/11:20am WNW 18 29 - - - - - - - 19.5 1004.7 0.0
09/11:00am WNW 18 26 - - - - - - - 20.2 1004.8 0.0
09/10:30am WNW 18 28 - - - - - - - 19.1 1004.9 0.0
09/10:11am WNW 16 26 - - - - - - - 19.1 1004.9 0.0
09/10:00am WNW 14 19 - - - - - - - 19.1 1004.9 0.0
09/09:31am WNW 17 33 - - - - - - - 18.4 1004.8 0.0
09/09:30am WNW 16 22 - - - - - - - 18.3 1004.8 0.0
09/09:00am WNW 18 24 - - - - - - Recent precip. 18.3 1004.1 21.0
09/08:30am W 17 23 - - - - - - - 18.4 1003.9 20.8
09/08:00am WNW 16 22 - - - - - - - 18.7 1004.0 20.4
09/07:35am NNW 15 25 - - - - - - - 18.9 1003.9 19.8
09/07:30am NNW 14 20 - - - - - - - 18.8 1003.8 19.0
09/07:00am NW 15 23 - - - - - - - 18.7 1003.7 18.0
09/06:48am NW 17 25 - - - - - - - 18.7 1003.7 17.4
09/06:30am NNW 7 15 - - - - - - - 19.2 1003.5 16.4
09/06:00am NNW 10 14 - - - - - - Rain 18.9 1003.9 15.4
09/05:30am NNW 15 21 - - - - - - - 18.8 1004.2 15.2
09/05:00am NW 19 29 - - - - - - - 18.5 1004.4 12.2
09/04:58am NW 19 29 - - - - - - - 18.5 1004.5 11.8
09/04:30am N 17 25 - - - - - - - 18.2 1003.5 3.4
09/04:00am N 19 30 - - - - - - - 18.3 1003.3 1.8
09/03:30am N 22 34 - - - - - - - 18.7 1003.7 1.2
09/03:19am N 21 31 - - - - - - - 18.8 1003.6 1.0
09/03:00am N 21 28 - - - - - - Rain 18.6 1003.9 1.0
09/02:30am N 20 31 - - - - - - - 19.0 1004.3 0.2
09/02:01am N 20 30 - - - - - - - 19.2 1004.8 0.0
09/02:00am N 21 30 - - - - - - - 19.3 1004.8 0.0
09/01:30am N 20 30 - - - - - - - 20.0 1005.2 0.0
09/01:03am N 20 31 - - - - - - - 20.4 1005.6 0.0
09/01:00am N 19 26 - - - - - - - 20.3 1005.7 0.0
09/12:30am N 20 32 - - - - - - - 21.4 1006.2 0.0
09/12:08am N 19 29 - - - - - - - 21.8 1006.6 0.0
09/12:00am N 17 24 - - - - - - - 21.6 1006.6 0.0
 
Date/Time
WST
Wind Sea
Height
m
Swell Vis
km
Cloud Weather Temp
°C
Press
hPa
Rain since
9am
mm
Dir  Spd
kts
Gust
kts
Height
m
Period
s
Dir
08/11:30pm N 18 28 - - - - - - - 21.7 1007.1 0.0
08/11:04pm N 17 27 - - - - - - - 21.6 1007.6 0.0
08/11:00pm N 17 25 - - - - - - - 21.7 1007.7 0.0
08/10:30pm N 15 24 - - - - - - - 21.8 1007.9 0.0
08/10:00pm N 16 24 - - - - - - - 22.2 1008.1 0.0
08/09:30pm N 17 24 - - - - - - - 22.0 1008.7 0.0
08/09:00pm N 16 23 - - - - - - - 22.5 1009.1 0.0
08/08:30pm N 16 21 - - - - - - - 22.9 1009.2 0.0
08/08:00pm N 16 24 - - - - - - - 22.7 1009.2 0.0
08/07:35pm NNW 15 26 - - - - - - - 22.5 1009.4 0.0
08/07:30pm NNW 16 22 - - - - - - - 22.2 1009.5 0.0
08/07:00pm NNW 14 19 - - - - - - - 22.8 1009.5 0.0
08/06:30pm N 16 23 - - - - - - - 22.4 1008.9 0.0
08/06:02pm NNW 16 26 - - - - - - - 22.9 1008.9 0.0
08/06:00pm NNW 15 23 - - - - - - - 22.9 1008.9 0.0
08/05:45pm NNW 17 27 - - - - - - - 23.0 1008.8 0.0
08/05:30pm NNW 15 20 - - - - - - - 22.9 1008.9 0.0
08/05:00pm NNW 17 23 - - - - - - - 23.5 1008.7 0.0
08/04:30pm NNW 16 25 - - - - - - - 24.1 1008.3 0.0
08/04:00pm N 19 28 - - - - - - - 24.3 1008.5 0.0
08/03:30pm NNW 20 28 - - - - - - - 25.5 1008.7 0.0
08/03:00pm N 19 29 - - - - - - - 26.4 1008.4 0.0
08/02:40pm N 19 29 - - - - - - - 26.1 1008.4 0.0
08/02:30pm N 21 27 - - - - - - - 25.7 1008.5 0.0
08/02:00pm N 20 31 - - - - - - - 25.6 1009.1 0.0
08/01:58pm N 19 30 - - - - - - - 25.7 1009.2 0.0
08/01:30pm N 18 26 - - - - - - - 25.6 1009.8 0.0
08/01:00pm N 17 24 - - - - - - - 25.7 1010.6 0.0
08/12:42pm N 16 26 - - - - - - - 25.1 1011.2 0.0
08/12:30pm NNE 15 23 - - - - - - - 25.4 1011.7 0.0
08/12:00pm NNE 15 23 - - - - - - - 24.8 1012.7 0.0
08/11:30am NNE 15 20 - - - - - - - 24.3 1013.0 0.0
08/11:00am NNE 15 19 - - - - - - - 24.1 1013.3 0.0
08/10:30am NNE 14 19 - - - - - - - 24.0 1013.8 0.0
08/10:00am NNE 13 19 - - - - - - - 23.0 1014.1 0.0
08/09:30am NNE 14 18 - - - - - - - 21.7 1014.2 0.0
08/09:00am NNE 13 18 - - - - - - - 21.6 1014.4 0.0
08/08:30am NNE 10 14 - - - - - - - 20.1 1014.3 0.0
08/08:00am NE 8 11 - - - - - - - 19.1 1014.2 0.0
08/07:30am NE 7 9 - - - - - - - 17.9 1014.2 0.0
08/07:00am NE 6 7 - - - - - - - 16.5 1014.2 0.0
08/06:30am NE 6 7 - - - - - - - 16.6 1014.1 0.0
08/06:00am NE 7 7 - - - - - - - 16.5 1013.9 0.0
08/05:30am NE 5 6 - - - - - - - 16.3 1013.9 0.0
08/05:00am ENE 5 5 - - - - - - - 16.0 1013.9 0.0
08/04:30am ENE 5 6 - - - - - - - 15.8 1013.9 0.0
08/04:00am ENE 5 6 - - - - - - - 15.5 1014.1 0.0
08/03:30am ENE 5 6 - - - - - - - 15.6 1014.4 0.0
08/03:00am NE 5 5 - - - - - - - 15.9 1014.6 0.0
08/02:30am NE 6 6 - - - - - - - 15.7 1014.7 0.0
08/02:00am ENE 4 5 - - - - - - - 15.6 1015.0 0.0
08/01:30am NE 4 5 - - - - - - - 16.0 1015.5 0.0
08/01:00am NE 5 6 - - - - - - - 16.1 1015.4 0.0
08/12:30am ENE 4 5 - - - - - - - 16.1 1015.4 0.0
08/12:00am ENE 5 5 - - - - - - - 16.0 1015.5 0.0
 
Date/Time
WST
Wind Sea
Height
m
Swell Vis
km
Cloud Weather Temp
°C
Press
hPa
Rain since
9am
mm
Dir  Spd
kts
Gust
kts
Height
m
Period
s
Dir
07/11:30pm ENE 4 4 - - - - - - - 16.0 1015.6 0.0
07/11:00pm CALM 0 0 - - - - - - - 16.3 1015.9 0.0
07/10:30pm NNW 2 3 - - - - - - - 17.0 1016.0 0.0
07/10:00pm NNW 3 5 - - - - - - - 17.7 1016.0 0.0
07/09:30pm NNW 4 5 - - - - - - - 17.9 1016.1 0.0
07/09:00pm N 6 7 - - - - - - - 17.7 1015.6 0.0
07/08:30pm NNW 7 8 - - - - - - - 17.7 1016.0 0.0
07/08:00pm NNW 6 7 - - - - - - - 17.7 1015.9 0.0
07/07:30pm NNW 6 7 - - - - - - - 18.0 1015.6 0.0
07/07:00pm N 5 7 - - - - - - - 18.5 1015.5 0.0
07/06:30pm NE 7 8 - - - - - - - 18.7 1014.7 0.0
07/06:00pm ENE 6 8 - - - - - - - 20.0 1014.8 0.0
07/05:30pm ENE 7 9 - - - - - - - 21.5 1014.9 0.0
07/05:00pm ENE 8 10 - - - - - - - 22.0 1014.7 0.0
07/04:30pm NE 9 11 - - - - - - - 22.7 1015.0 0.0
07/04:00pm NE 10 13 - - - - - - - 23.7 1015.2 0.0
07/03:30pm NE 9 13 - - - - - - - 23.5 1015.8 0.0
07/03:00pm NE 9 14 - - - - - - - 23.2 1016.2 0.0
07/02:30pm NE 10 15 - - - - - - - 23.2 1016.4 0.0
07/02:00pm NE 12 16 - - - - - - - 22.5 1016.9 0.0
07/01:30pm NNE 11 17 - - - - - - - 21.4 1017.3 0.0
07/01:00pm NE 11 15 - - - - - - - 20.6 1017.1 0.0
07/12:30pm ENE 12 18 - - - - - - - 20.9 1017.4 0.0
07/12:00pm ENE 14 18 - - - - - - - 18.8 1017.4 0.0
07/11:30am ENE 14 18 - - - - - - - 18.5 1018.4 0.0
07/11:00am ENE 15 19 - - - - - - - 18.5 1018.8 0.0
07/10:30am ENE 13 18 - - - - - - - 18.9 1019.1 0.0
07/10:00am ENE 13 19 - - - - - - - 17.7 1019.2 0.0
07/09:30am ENE 13 18 - - - - - - - 17.2 1019.1 0.0
07/09:00am ENE 15 20 - - - - - - - 17.3 1019.0 -
07/08:30am ENE 15 18 - - - - - - - 16.8 1019.0 -
07/08:00am ENE 12 18 - - - - - - - 16.5 1018.9 -
07/07:30am E 9 12 - - - - - - - 15.3 1018.8 -
07/07:00am ENE 10 12 - - - - - - - 13.9 1018.6 -
07/06:30am E 9 13 - - - - - - - 14.2 1018.3 -
07/06:00am E 9 13 - - - - - - - 14.7 1018.2 -
07/05:30am E 9 11 - - - - - - - 14.1 1017.7 -
07/05:00am E 10 11 - - - - - - - 13.9 1017.4 -
07/04:30am ESE 8 9 - - - - - - - 13.2 1017.8 -
07/04:00am ESE 8 9 - - - - - - - 13.0 1018.0 -
07/03:30am ESE 8 9 - - - - - - - 13.3 1018.3 -
07/03:00am ESE 9 10 - - - - - - - 11.9 1018.2 -
07/02:30am ESE 7 8 - - - - - - - 11.9 1018.5 -
07/02:00am SE 7 8 - - - - - - - 12.9 1018.7 -
07/01:30am ESE 8 9 - - - - - - - 13.7 1018.8 -
07/01:00am ESE 8 10 - - - - - - - 14.4 1018.7 0.0
07/12:30am ESE 9 10 - - - - - - - 13.9 1018.7 0.0
07/12:00am ESE 8 9 - - - - - - - 14.5 1019.0 0.0
 
Date/Time
WST
Wind Sea
Height
m
Swell Vis
km
Cloud Weather Temp
°C
Press
hPa
Rain since
9am
mm
Dir  Spd
kts
Gust
kts
Height
m
Period
s
Dir
06/11:30pm ESE 9 11 - - - - - - - 15.0 1019.1 0.0
06/11:00pm ESE 9 10 - - - - - - - 14.7 1018.9 0.0
06/10:30pm ESE 9 11 - - - - - - - 15.1 1018.7 0.0
06/10:00pm SE 9 10 - - - - - - - 13.8 1018.4 0.0
06/09:30pm SE 6 7 - - - - - - - 13.4 1018.5 0.0
06/09:00pm SSE 6 7 - - - - - - - 14.6 1018.5 0.0

Other formats

Comma delimited format used in spreadsheet applications
http://www.bom.gov.au/fwo/IDW60701/IDW60701.95402.axf

JavaScript Object Notation format (JSON) in row-major order
http://www.bom.gov.au/fwo/IDW60701/IDW60701.95402.json

Data quality

Most of these data are generated automatically and are frequently updated. Quality checks on data are not normally performed. It is possible for incorrect values to appear. Refer to information at About Latest Weather Observations and please check the disclaimer before using these data.